Time;durP1;ratioP1;P1;durP2;ratioP2;P2;SDS_P1;SDS_P2;PMS_P1;PMS_P2;Temp;Humidity;BMP_temperature;BMP_pressure;BME280_temperature;BME280_humidity;BME280_pressure;Samples;Min_cycle;Max_cycle;Signal;HPM_P1;HPM_P2
2023/12/01 00:03:33;;;;;;;6.57;3.13;;;;;;;11.68;87.16;99103.47;10328100;28;96689;-77
2023/12/01 00:08:36;;;;;;;6.03;3.42;;;;;;;11.64;87.49;99123.03;10413081;22;97371;-77
2023/12/01 00:13:42;;;;;;;7.18;3.25;;;;;;;11.74;87.13;99103.06;10394916;27;97634;-77
2023/12/01 00:18:45;;;;;;;4.63;3.00;;;;;;;11.76;87.34;99091.50;10369853;28;96722;-77
2023/12/01 00:23:49;;;;;;;5.13;2.80;;;;;;;11.68;87.32;99099.06;10403207;27;97334;-77
2023/12/01 00:28:54;;;;;;;6.07;3.15;;;;;;;11.62;86.85;99106.47;10419458;27;96611;-77
2023/12/01 00:33:57;;;;;;;5.35;3.20;;;;;;;11.63;87.05;99121.34;10411241;27;96982;-77
2023/12/01 00:39:01;;;;;;;3.85;2.05;;;;;;;11.57;87.05;99132.25;10412651;27;96685;-77
2023/12/01 00:44:06;;;;;;;3.38;1.80;;;;;;;11.54;86.98;99085.91;10410967;27;97264;-77
2023/12/01 00:49:10;;;;;;;4.32;2.13;;;;;;;11.46;87.30;99111.00;10411108;27;96993;-77
2023/12/01 00:54:13;;;;;;;2.97;2.07;;;;;;;11.40;87.02;99106.97;10414543;27;97085;-77
2023/12/01 00:59:18;;;;;;;5.07;2.78;;;;;;;11.29;87.13;99102.34;10445995;27;97533;-77
2023/12/01 01:04:21;;;;;;;4.00;2.58;;;;;;;11.39;87.50;99103.47;10439917;27;97267;-77
2023/12/01 01:09:25;;;;;;;4.30;2.65;;;;;;;11.54;86.80;99082.41;10417223;27;96845;-77
2023/12/01 01:14:30;;;;;;;4.15;2.80;;;;;;;11.38;87.22;99087.78;10418024;27;97527;-77
2023/12/01 01:19:33;;;;;;;3.85;3.00;;;;;;;11.38;87.46;99086.00;10416981;27;97411;-77
2023/12/01 01:24:37;;;;;;;5.15;3.05;;;;;;;11.48;87.23;99082.75;10417500;27;97358;-77
2023/12/01 01:29:41;;;;;;;7.72;3.67;;;;;;;11.41;86.88;99078.84;10417937;27;97478;-77
2023/12/01 01:34:45;;;;;;;5.88;3.92;;;;;;;11.25;86.97;99069.22;10417089;27;98213;-77
2023/12/01 01:39:48;;;;;;;4.45;2.90;;;;;;;11.21;86.91;99069.53;10416119;28;96966;-77
2023/12/01 01:44:53;;;;;;;4.30;2.85;;;;;;;11.18;86.64;99067.09;10415052;27;97299;-77
2023/12/01 01:49:57;;;;;;;4.28;3.00;;;;;;;11.13;87.24;99064.72;10416782;27;97148;-77
2023/12/01 01:55:01;;;;;;;4.57;2.85;;;;;;;11.03;86.69;99063.53;10405813;27;96745;-77
2023/12/01 02:00:07;;;;;;;6.85;3.53;;;;;;;10.99;86.78;99064.66;10375958;28;97007;-77
2023/12/01 02:05:14;;;;;;;4.72;3.17;;;;;;;11.01;86.72;99073.31;10424190;27;96839;-77
2023/12/01 02:10:17;;;;;;;4.80;3.20;;;;;;;11.05;86.16;99071.34;10438229;27;97204;-77
2023/12/01 02:15:27;;;;;;;4.85;3.15;;;;;;;11.03;86.85;99065.31;10415466;27;96705;-77
2023/12/01 02:20:30;;;;;;;6.55;3.63;;;;;;;10.69;86.57;99076.16;10416786;27;96974;-77
2023/12/01 02:25:35;;;;;;;5.63;3.38;;;;;;;10.76;86.89;99088.03;10454279;27;97331;-77
2023/12/01 02:30:39;;;;;;;5.47;3.30;;;;;;;10.85;87.58;99092.75;10456544;27;96911;-77
2023/12/01 02:35:46;;;;;;;5.93;2.97;;;;;;;10.65;87.55;99091.28;10455535;27;97346;-77
2023/12/01 02:40:51;;;;;;;5.88;2.95;;;;;;;10.67;87.28;99099.94;10431383;27;96617;-77
2023/12/01 02:45:55;;;;;;;3.75;2.20;;;;;;;10.75;87.56;99088.97;10414271;27;97084;-77
2023/12/01 02:50:58;;;;;;;4.95;2.63;;;;;;;10.78;86.46;99096.69;10414349;27;96888;-77
2023/12/01 02:56:03;;;;;;;4.38;2.40;;;;;;;10.63;86.95;99097.56;10404602;27;96767;-77
2023/12/01 03:01:07;;;;;;;4.18;2.17;;;;;;;10.64;86.36;99100.13;10429426;27;96616;-77
2023/12/01 03:06:11;;;;;;;4.93;2.50;;;;;;;10.63;86.97;99102.81;10399492;28;96769;-77
2023/12/01 03:11:15;;;;;;;3.60;2.20;;;;;;;10.79;86.73;99109.75;10372824;28;97361;-77
2023/12/01 03:16:19;;;;;;;8.63;3.20;;;;;;;10.69;86.27;99098.06;10409170;27;97227;-77
2023/12/01 03:21:22;;;;;;;5.35;2.60;;;;;;;10.81;86.65;99105.25;10413326;28;97342;-77
2023/12/01 03:26:27;;;;;;;5.43;2.38;;;;;;;10.71;86.30;99112.00;10412006;28;96626;-77
2023/12/01 03:31:30;;;;;;;4.75;2.80;;;;;;;10.31;86.40;99109.94;10413409;27;96517;-77
2023/12/01 03:36:34;;;;;;;4.85;2.55;;;;;;;10.24;88.02;99105.97;10412589;27;97498;-80
2023/12/01 03:41:41;;;;;;;5.38;2.80;;;;;;;10.31;87.74;99098.56;10412308;27;96663;-78
2023/12/01 03:46:44;;;;;;;5.07;2.47;;;;;;;10.47;87.09;99088.88;10412843;27;97209;-78
2023/12/01 03:51:48;;;;;;;5.00;2.53;;;;;;;10.42;87.00;99086.50;10395957;27;96737;-78
2023/12/01 03:56:53;;;;;;;4.57;2.88;;;;;;;10.47;87.13;99096.78;10378321;28;96778;-78
2023/12/01 04:01:56;;;;;;;5.90;2.45;;;;;;;10.34;86.97;99101.03;10412552;28;96637;-77
2023/12/01 04:07:00;;;;;;;5.68;2.42;;;;;;;10.41;86.90;99110.25;10446236;27;97155;-78
2023/12/01 04:12:06;;;;;;;5.10;2.65;;;;;;;10.53;87.17;99107.78;10453838;27;97194;-77
2023/12/01 04:17:10;;;;;;;2.85;2.35;;;;;;;10.45;86.20;99102.13;10452385;27;96669;-77
2023/12/01 04:22:13;;;;;;;5.32;2.40;;;;;;;10.58;86.86;99103.09;10452987;27;96707;-77
2023/12/01 04:27:18;;;;;;;3.55;2.45;;;;;;;10.46;86.95;99103.81;10435149;27;96871;-77
2023/12/01 04:32:21;;;;;;;5.78;2.88;;;;;;;10.63;85.81;99089.66;10418737;28;97010;-77
2023/12/01 04:37:25;;;;;;;4.20;2.80;;;;;;;10.62;85.59;99093.25;10418930;27;96783;-78
2023/12/01 04:42:31;;;;;;;4.13;2.75;;;;;;;10.63;86.12;99100.19;10418621;27;97195;-77
2023/12/01 04:47:34;;;;;;;3.65;2.30;;;;;;;10.64;85.61;99094.88;10418300;27;97473;-77
2023/12/01 04:52:37;;;;;;;3.35;2.40;;;;;;;10.38;86.21;99098.16;10388842;27;97429;-78
2023/12/01 04:57:43;;;;;;;4.45;2.55;;;;;;;10.33;85.94;99108.09;10418223;27;96620;-78
2023/12/01 05:02:48;;;;;;;3.67;2.28;;;;;;;10.43;85.91;99111.88;10417446;27;96714;-78
2023/12/01 05:07:56;;;;;;;4.07;2.40;;;;;;;10.47;85.88;99126.53;10416111;28;96808;-78
2023/12/01 05:13:02;;;;;;;6.65;2.35;;;;;;;10.48;85.96;99135.28;10435603;27;97636;-79
2023/12/01 05:18:07;;;;;;;3.33;1.95;;;;;;;10.42;86.30;99136.47;10459071;27;96718;-79
2023/12/01 05:23:11;;;;;;;3.40;2.13;;;;;;;10.45;85.84;99144.19;10435027;27;96660;-79
2023/12/01 05:28:16;;;;;;;3.03;2.30;;;;;;;10.45;86.50;99144.19;10419498;27;97056;-78
2023/12/01 05:33:19;;;;;;;3.40;2.28;;;;;;;10.40;85.98;99140.13;10458168;27;97273;-78
2023/12/01 05:38:23;;;;;;;4.43;2.35;;;;;;;10.40;85.87;99143.63;10458114;27;97296;-78
2023/12/01 05:43:28;;;;;;;3.22;2.22;;;;;;;10.32;85.78;99147.59;10459416;27;96886;-77
2023/12/01 05:48:31;;;;;;;;;;;;;;;10.33;86.09;99154.56;10427412;27;96884;-78
2023/12/01 05:53:35;;;;;;;4.10;2.88;;;;;;;10.29;86.96;99143.38;10416054;28;97096;-79
2023/12/01 05:58:39;;;;;;;3.70;2.47;;;;;;;10.21;87.10;99148.22;10414832;28;97345;-78
2023/12/01 06:03:43;;;;;;;3.83;2.42;;;;;;;10.25;86.60;99152.34;10431092;27;97493;-78
2023/12/01 06:08:46;;;;;;;5.95;2.55;;;;;;;10.23;86.55;99162.94;10457407;27;96787;-78
2023/12/01 06:13:51;;;;;;;3.05;2.20;;;;;;;10.21;86.94;99171.88;10457228;27;96661;-77
2023/12/01 06:18:54;;;;;;;6.70;1.98;;;;;;;10.19;86.83;99165.84;10456161;27;96911;-77
2023/12/01 06:23:58;;;;;;;5.00;1.90;;;;;;;10.29;87.11;99177.53;10373529;28;97077;-77
2023/12/01 06:29:03;;;;;;;3.47;2.13;;;;;;;10.33;86.35;99186.09;10407930;28;96695;-77
2023/12/01 06:34:06;;;;;;;3.83;1.85;;;;;;;10.26;86.24;99185.59;10415141;27;96762;-78
2023/12/01 06:39:10;;;;;;;3.08;2.10;;;;;;;10.40;86.15;99177.81;10415181;27;96958;-77
2023/12/01 06:44:15;;;;;;;4.18;2.03;;;;;;;10.41;86.18;99202.28;10407572;27;97163;-77
2023/12/01 06:49:19;;;;;;;4.10;2.30;;;;;;;10.53;86.67;99210.34;10379089;28;97160;-77
2023/12/01 06:54:22;;;;;;;4.57;2.25;;;;;;;10.61;85.82;99207.31;10425718;27;96820;-77
2023/12/01 06:59:27;;;;;;;4.40;2.30;;;;;;;10.66;85.98;99197.38;10456469;27;96790;-77
2023/12/01 07:04:32;;;;;;;3.25;2.13;;;;;;;10.59;85.66;99215.28;10455403;27;96797;-78
2023/12/01 07:09:35;;;;;;;2.95;1.88;;;;;;;10.48;86.42;99227.31;10455142;27;97092;-77
2023/12/01 07:14:50;;;;;;;3.80;1.92;;;;;;;10.50;86.56;99236.84;10455001;27;96621;-78
2023/12/01 07:19:53;;;;;;;3.17;2.30;;;;;;;10.48;86.38;99243.97;10454948;27;96978;-78
2023/12/01 07:24:57;;;;;;;4.30;2.10;;;;;;;10.47;85.71;99251.94;10454535;27;97100;-77
2023/12/01 07:30:01;;;;;;;2.00;1.52;;;;;;;10.54;85.55;99243.59;10439564;27;97570;-77
2023/12/01 07:35:05;;;;;;;3.05;2.10;;;;;;;10.47;86.30;99246.69;10454694;27;96716;-77
2023/12/01 07:40:10;;;;;;;3.60;2.00;;;;;;;10.53;85.73;99264.75;10453910;27;96738;-77
2023/12/01 07:45:17;;;;;;;3.75;2.15;;;;;;;10.48;86.31;99259.75;10435754;27;96762;-77
2023/12/01 07:50:22;;;;;;;3.28;2.25;;;;;;;10.55;86.07;99268.13;10428076;27;96787;-77
2023/12/01 07:55:26;;;;;;;3.07;1.97;;;;;;;10.59;85.92;99269.69;10412557;27;96741;-77
2023/12/01 08:00:32;;;;;;;3.45;2.17;;;;;;;10.58;86.59;99283.75;10412596;27;97078;-77
2023/12/01 08:05:36;;;;;;;2.50;1.77;;;;;;;10.55;86.40;99283.91;10458708;27;97335;-77
2023/12/01 08:10:39;;;;;;;3.37;2.03;;;;;;;10.57;85.96;99289.94;10461770;27;97054;-77
2023/12/01 08:15:44;;;;;;;3.00;2.03;;;;;;;10.51;86.02;99293.75;10462223;27;97201;-77
2023/12/01 08:20:48;;;;;;;4.75;2.60;;;;;;;10.55;86.24;99310.22;10457264;27;97440;-78
2023/12/01 08:25:52;;;;;;;5.93;2.85;;;;;;;10.50;86.55;99309.63;10418696;28;96849;-77
2023/12/01 08:30:58;;;;;;;3.75;2.33;;;;;;;10.46;86.10;99316.84;10417919;28;96896;-77
2023/12/01 08:36:02;;;;;;;3.72;2.58;;;;;;;10.37;86.24;99324.38;10419385;27;96600;-77
2023/12/01 08:41:06;;;;;;;5.55;2.72;;;;;;;10.58;86.04;99334.59;10418717;27;96692;-77
2023/12/01 08:46:11;;;;;;;2.95;2.13;;;;;;;10.67;85.35;99344.63;10418297;28;97186;-77
2023/12/01 08:51:14;;;;;;;4.57;2.22;;;;;;;10.67;86.03;99357.75;10418247;28;97351;-77
2023/12/01 08:56:18;;;;;;;3.25;2.28;;;;;;;10.73;85.68;99382.91;10418595;27;97060;-77
2023/12/01 09:01:23;;;;;;;3.28;2.40;;;;;;;10.50;86.16;99401.69;10417968;27;97036;-77
2023/12/01 09:06:26;;;;;;;3.38;2.22;;;;;;;10.43;86.27;99393.28;10418159;27;96681;-78
2023/12/01 09:11:30;;;;;;;4.35;2.00;;;;;;;10.33;87.41;99388.56;10418477;27;96586;-79
2023/12/01 09:16:36;;;;;;;3.10;1.50;;;;;;;10.32;87.01;99392.13;10416522;27;98127;-79
2023/12/01 09:21:39;;;;;;;1.92;1.27;;;;;;;10.13;87.74;99397.50;10416041;28;96896;-80
2023/12/01 09:26:43;;;;;;;3.05;1.45;;;;;;;10.26;87.68;99399.41;10417703;27;97212;-80
2023/12/01 09:31:48;;;;;;;2.75;1.67;;;;;;;10.47;86.98;99388.72;10416994;27;96685;-80
2023/12/01 09:36:52;;;;;;;2.80;1.10;;;;;;;10.73;87.18;99391.63;10416899;28;97328;-79
2023/12/01 09:41:57;;;;;;;1.55;0.98;;;;;;;10.93;86.08;99401.09;10416508;28;96673;-78
2023/12/01 09:47:04;;;;;;;1.77;1.20;;;;;;;11.08;86.31;99413.41;10451038;27;97218;-78
2023/12/01 09:52:07;;;;;;;2.65;1.17;;;;;;;11.05;85.55;99424.97;10416801;27;96789;-77
2023/12/01 09:57:12;;;;;;;3.30;1.50;;;;;;;11.39;85.11;99432.72;10417262;27;96718;-77
2023/12/01 10:02:17;;;;;;;2.63;1.17;;;;;;;11.60;85.45;99448.28;10416855;27;97006;-77
2023/12/01 10:07:21;;;;;;;;;;;;;;;11.77;84.63;99456.06;10415681;28;96938;-77
2023/12/01 10:12:24;;;;;;;1.65;0.90;;;;;;;11.92;84.54;99469.22;10415300;28;96638;-77
2023/12/01 10:17:29;;;;;;;1.05;0.90;;;;;;;12.05;84.00;99478.13;10416157;27;96712;-76
2023/12/01 10:22:32;;;;;;;;;;;;;;;12.00;83.65;99488.06;10415986;27;96884;-76
2023/12/01 10:27:36;;;;;;;1.63;1.23;;;;;;;11.76;84.41;99489.47;10407953;27;96737;-77
2023/12/01 10:32:42;;;;;;;1.55;0.90;;;;;;;11.97;83.74;99492.69;10415392;28;96957;-77
2023/12/01 10:37:47;;;;;;;1.60;1.10;;;;;;;11.81;84.52;99494.47;10412678;27;97004;-77
2023/12/01 10:42:53;;;;;;;1.90;1.00;;;;;;;11.94;84.09;99493.72;10386877;28;96900;-76
2023/12/01 10:47:59;;;;;;;2.80;1.00;;;;;;;12.00;83.53;99508.31;10415112;28;96687;-77
2023/12/01 10:53:06;;;;;;;1.88;1.00;;;;;;;11.72;83.85;99514.28;10414660;27;97411;-77
2023/12/01 10:58:12;;;;;;;1.63;1.13;;;;;;;11.67;84.09;99521.63;10414432;27;96653;-77
2023/12/01 11:03:19;;;;;;;3.38;1.10;;;;;;;11.80;84.35;99513.88;10412950;27;97077;-77
2023/12/01 11:08:44;;;;;;;2.05;1.20;;;;;;;12.00;84.29;99510.94;10413889;27;97216;-77
2023/12/01 11:14:02;;;;;;;2.20;1.20;;;;;;;12.39;83.18;99504.22;10414684;27;96848;-77
2023/12/01 11:19:10;;;;;;;3.55;1.40;;;;;;;12.74;83.10;99510.06;10416632;27;96498;-77
2023/12/01 11:24:25;;;;;;;1.95;1.20;;;;;;;12.99;82.07;99514.72;10389090;27;96698;-77
2023/12/01 11:29:33;;;;;;;2.40;1.17;;;;;;;12.75;82.94;99508.28;10437971;27;96808;-75
2023/12/01 11:35:06;;;;;;;2.95;1.67;;;;;;;12.92;82.46;99519.53;10410176;28;98755;-73
2023/12/01 11:40:23;;;;;;;3.38;2.00;;;;;;;12.92;82.33;99526.59;10399574;28;96734;-73
2023/12/01 11:45:41;;;;;;;3.10;1.88;;;;;;;12.95;82.39;99527.25;10406815;27;97573;-74
2023/12/01 11:50:47;;;;;;;4.05;2.20;;;;;;;12.97;82.48;99527.16;10395982;28;98704;-74
2023/12/01 11:55:51;;;;;;;4.30;2.55;;;;;;;12.84;82.88;99531.50;10407221;28;96862;-74
2023/12/01 12:00:54;;;;;;;6.47;2.92;;;;;;;12.89;82.94;99540.00;10396415;27;96867;-74
2023/12/01 12:05:59;;;;;;;5.53;2.92;;;;;;;13.04;82.89;99541.69;10408930;28;97346;-74
2023/12/01 12:11:05;;;;;;;4.55;2.30;;;;;;;13.11;82.66;99543.88;10412065;28;96767;-74
2023/12/01 12:16:11;;;;;;;5.35;2.65;;;;;;;13.11;81.60;99543.88;10409007;27;96857;-74
2023/12/01 12:21:17;;;;;;;3.85;2.40;;;;;;;13.26;81.52;99531.53;10411726;28;97838;-74
2023/12/01 12:26:22;;;;;;;4.55;2.63;;;;;;;13.45;81.64;99532.91;10398529;28;96772;-74
2023/12/01 12:31:27;;;;;;;6.07;2.90;;;;;;;13.65;80.74;99535.16;10404957;28;96781;-75
2023/12/01 12:36:33;;;;;;;4.35;2.67;;;;;;;13.67;79.98;99532.44;10363424;22;99477;-74
2023/12/01 12:41:40;;;;;;;6.43;2.72;;;;;;;13.64;79.05;99535.25;10326871;28;96950;-72
2023/12/01 12:46:57;;;;;;;5.82;2.53;;;;;;;13.64;79.27;99530.81;10328412;28;96793;-73
2023/12/01 12:52:04;;;;;;;4.63;2.55;;;;;;;13.82;78.67;99539.38;10335395;28;96777;-73
2023/12/01 12:57:08;;;;;;;5.45;2.28;;;;;;;14.06;78.71;99537.81;10345323;28;97011;-73
2023/12/01 13:02:12;;;;;;;3.70;2.10;;;;;;;13.90;78.12;99539.72;10336808;28;96874;-74
2023/12/01 13:07:17;;;;;;;3.72;2.53;;;;;;;13.74;78.52;99546.97;10337680;28;97025;-72
2023/12/01 13:12:21;;;;;;;4.00;1.90;;;;;;;13.40;77.97;99545.56;10337501;28;97180;-73
2023/12/01 13:17:25;;;;;;;5.15;2.53;;;;;;;13.10;78.09;99551.91;10335786;28;97137;-75
2023/12/01 13:22:30;;;;;;;5.40;2.00;;;;;;;12.92;78.60;99559.16;10336807;28;96686;-77
2023/12/01 13:27:33;;;;;;;5.22;2.25;;;;;;;12.68;77.54;99557.09;10339194;28;96707;-75
2023/12/01 13:32:37;;;;;;;4.78;1.75;;;;;;;12.69;77.49;99562.28;10336183;28;96943;-77
2023/12/01 13:37:42;;;;;;;4.25;2.60;;;;;;;12.60;76.97;99554.91;10335503;28;96727;-76
2023/12/01 13:42:45;;;;;;;;;;;;;;;12.66;77.08;99556.34;10337977;28;96614;-79
2023/12/01 13:47:50;;;;;;;5.40;2.42;;;;;;;12.99;77.76;99562.25;10335440;28;96766;-76
2023/12/01 13:52:56;;;;;;;7.38;2.55;;;;;;;13.30;76.69;99564.72;10331759;28;96814;-78
2023/12/01 13:58:00;;;;;;;3.85;2.13;;;;;;;13.28;75.78;99572.75;10334501;28;96813;-75
2023/12/01 14:03:04;;;;;;;4.45;2.22;;;;;;;13.59;76.32;99571.69;10334282;28;96769;-78
2023/12/01 14:08:18;;;;;;;3.60;2.10;;;;;;;13.75;76.16;99577.72;10332424;28;96865;-76
2023/12/01 14:13:22;;;;;;;2.10;1.35;;;;;;;13.68;75.64;99577.28;10334089;28;96766;-76
2023/12/01 14:18:26;;;;;;;2.75;1.90;;;;;;;13.35;73.97;99575.88;10333209;28;96736;-75
2023/12/01 14:23:31;;;;;;;4.45;2.03;;;;;;;13.29;75.35;99595.56;10335820;28;97199;-80
2023/12/01 14:28:35;;;;;;;7.30;1.88;;;;;;;13.21;74.39;99578.50;10332953;28;96830;-76
2023/12/01 14:33:38;;;;;;;7.93;2.30;;;;;;;13.32;75.04;99587.47;10332481;28;96802;-77
2023/12/01 14:38:43;;;;;;;4.07;1.50;;;;;;;13.29;74.23;99597.41;10333781;28;96940;-77
2023/12/01 14:43:46;;;;;;;4.13;2.15;;;;;;;13.27;74.67;99602.78;10334214;28;97497;-76
2023/12/01 14:48:51;;;;;;;3.38;2.10;;;;;;;13.33;74.88;99605.03;10332506;28;96967;-77
2023/12/01 14:53:56;;;;;;;4.60;2.20;;;;;;;13.31;74.55;99606.09;10335066;28;97334;-76
2023/12/01 14:59:00;;;;;;;3.80;1.88;;;;;;;13.32;74.98;99613.91;10333472;28;96603;-78
2023/12/01 15:04:04;;;;;;;3.95;1.88;;;;;;;13.25;74.76;99617.88;10331437;28;96735;-77
2023/12/01 15:09:10;;;;;;;3.88;2.00;;;;;;;13.04;75.59;99624.44;10330606;28;96843;-76
2023/12/01 15:14:15;;;;;;;5.85;2.70;;;;;;;12.86;75.94;99617.59;10324059;28;96767;-80
2023/12/01 15:19:18;;;;;;;4.38;2.10;;;;;;;13.29;75.56;99629.09;10325845;28;98877;-75
2023/12/01 15:24:23;;;;;;;4.80;2.58;;;;;;;14.48;72.02;99632.94;10332459;28;96830;-75
2023/12/01 15:29:26;;;;;;;;;;;;;;;15.62;68.50;99636.66;10332437;28;96774;-75
2023/12/01 15:34:30;;;;;;;7.90;3.17;;;;;;;16.20;69.03;99650.16;10331719;28;96801;-75
2023/12/01 15:39:35;;;;;;;4.40;2.55;;;;;;;16.29;66.69;99648.66;10332132;28;96817;-75
2023/12/01 15:44:38;;;;;;;6.65;2.55;;;;;;;16.80;67.56;99653.66;10331208;28;96794;-75
2023/12/01 15:49:42;;;;;;;3.67;1.90;;;;;;;16.17;68.36;99660.97;10331501;28;96705;-75
2023/12/01 15:54:47;;;;;;;5.88;2.85;;;;;;;15.10;69.51;99675.59;10331256;28;96767;-75
2023/12/01 15:59:51;;;;;;;8.00;3.78;;;;;;;14.67;70.86;99683.75;10331964;28;96850;-75
2023/12/01 16:04:55;;;;;;;9.15;4.10;;;;;;;14.22;71.20;99688.50;10331783;28;97131;-75
2023/12/01 16:09:59;;;;;;;12.40;4.77;;;;;;;13.90;72.10;99694.94;10331037;28;96805;-75
2023/12/01 16:15:04;;;;;;;12.15;4.82;;;;;;;13.55;72.68;99705.84;10330876;28;96918;-75
2023/12/01 16:20:19;;;;;;;8.90;4.50;;;;;;;13.43;73.23;99706.59;10331685;28;96665;-75
2023/12/01 16:25:24;;;;;;;9.50;3.95;;;;;;;13.27;73.72;99711.09;10336034;28;96758;-75
2023/12/01 16:30:28;;;;;;;8.27;3.47;;;;;;;13.03;73.77;99720.47;10338556;28;96542;-75
2023/12/01 16:35:31;;;;;;;11.23;4.10;;;;;;;12.82;74.42;99729.63;10334894;28;99065;-76
2023/12/01 16:40:36;;;;;;;7.63;2.90;;;;;;;12.63;75.00;99736.84;10334471;28;96843;-72
2023/12/01 16:45:39;;;;;;;5.38;2.65;;;;;;;12.47;75.43;99742.13;10336455;28;97100;-72
2023/12/01 16:50:43;;;;;;;7.80;3.13;;;;;;;12.31;76.65;99758.88;10338956;28;96791;-74
2023/12/01 16:55:48;;;;;;;6.90;2.92;;;;;;;12.29;76.02;99769.50;10335344;28;97279;-75
2023/12/01 17:00:51;;;;;;;7.68;3.10;;;;;;;12.25;75.73;99786.44;10335303;28;97233;-73
2023/12/01 17:05:54;;;;;;;7.68;2.88;;;;;;;12.02;76.64;99794.72;10336233;28;96797;-75
2023/12/01 17:10:59;;;;;;;8.20;4.70;;;;;;;11.81;77.44;99806.38;10336289;28;96800;-72
2023/12/01 17:16:03;;;;;;;11.13;6.18;;;;;;;11.68;78.19;99815.88;10336511;28;96765;-72
2023/12/01 17:21:12;;;;;;;14.45;7.55;;;;;;;11.57;78.68;99826.09;10336265;28;97081;-73
2023/12/01 17:26:17;;;;;;;11.02;6.60;;;;;;;11.57;78.51;99836.63;10337084;28;97318;-72
2023/12/01 17:31:20;;;;;;;15.20;9.45;;;;;;;11.52;78.74;99843.91;10335133;28;96777;-73
2023/12/01 17:36:26;;;;;;;14.52;10.25;;;;;;;11.56;78.10;99847.25;10336416;28;96688;-73
2023/12/01 17:41:31;;;;;;;15.27;8.77;;;;;;;11.66;77.89;99853.75;10346074;28;96951;-73
2023/12/01 17:46:34;;;;;;;11.73;6.68;;;;;;;11.74;77.75;99855.06;10327778;28;97784;-74
2023/12/01 17:51:38;;;;;;;12.70;6.93;;;;;;;11.78;77.44;99869.81;10332609;28;98361;-73
2023/12/01 17:56:43;;;;;;;13.30;7.55;;;;;;;11.83;78.12;99877.47;10335175;28;96692;-73
2023/12/01 18:01:46;;;;;;;;;;;;;;;11.81;78.82;99884.59;10334370;28;96841;-73
2023/12/01 18:06:51;;;;;;;9.77;4.38;;;;;;;11.86;78.41;99887.88;10332737;28;96812;-73
2023/12/01 18:11:55;;;;;;;10.18;5.07;;;;;;;11.86;78.87;99895.78;10333926;28;98779;-74
2023/12/01 18:16:59;;;;;;;8.20;5.13;;;;;;;11.78;79.01;99901.44;10330830;28;96728;-74
2023/12/01 18:22:03;;;;;;;10.30;4.75;;;;;;;11.79;79.62;99905.78;10334585;28;96736;-74
2023/12/01 18:27:07;;;;;;;10.20;5.22;;;;;;;11.77;79.62;99906.81;10333989;28;98834;-74
2023/12/01 18:32:11;;;;;;;9.35;4.88;;;;;;;11.68;79.89;99917.78;10334704;28;96714;-75
2023/12/01 18:37:14;;;;;;;12.00;5.63;;;;;;;11.61;80.25;99934.84;10333534;28;99173;-74
2023/12/01 18:42:19;;;;;;;11.15;5.68;;;;;;;11.57;80.67;99928.84;10333190;28;96821;-74
2023/12/01 18:47:23;;;;;;;12.70;5.43;;;;;;;11.50;80.73;99937.13;10331904;28;98583;-74
2023/12/01 18:52:26;;;;;;;11.95;5.10;;;;;;;11.41;80.82;99943.69;10333967;28;96720;-74
2023/12/01 18:57:31;;;;;;;11.52;4.90;;;;;;;11.28;81.20;99943.44;10330174;28;96770;-74
2023/12/01 19:02:34;;;;;;;7.05;4.40;;;;;;;11.16;81.17;99946.63;10331583;28;96837;-75
2023/12/01 19:07:38;;;;;;;9.60;4.93;;;;;;;11.04;81.33;99944.53;10332362;28;98831;-73
2023/12/01 19:12:43;;;;;;;13.10;4.82;;;;;;;11.05;81.36;99956.78;10332412;28;96861;-74
2023/12/01 19:17:46;;;;;;;8.43;4.57;;;;;;;11.09;81.51;99962.81;10332649;28;96938;-74
2023/12/01 19:22:50;;;;;;;8.43;3.88;;;;;;;10.93;82.05;99974.91;10341130;28;98803;-73
2023/12/01 19:27:55;;;;;;;9.98;4.60;;;;;;;10.84;81.64;99973.56;10332884;28;96812;-73
2023/12/01 19:32:58;;;;;;;8.40;4.10;;;;;;;10.81;82.07;99972.84;10331639;28;96724;-73
2023/12/01 19:38:02;;;;;;;7.82;4.50;;;;;;;10.80;82.41;99977.25;10332243;28;96911;-73
2023/12/01 19:43:07;;;;;;;8.25;3.90;;;;;;;10.70;82.31;99978.59;10331762;28;96768;-73
2023/12/01 19:48:10;;;;;;;7.93;4.55;;;;;;;10.60;82.87;99986.94;10330402;28;96873;-73
2023/12/01 19:53:17;;;;;;;7.03;3.95;;;;;;;10.46;82.78;99990.19;10328141;28;96854;-74
2023/12/01 19:58:22;;;;;;;10.50;4.55;;;;;;;10.39;82.32;100001.88;10339936;28;96645;-73
2023/12/01 20:03:25;;;;;;;9.57;4.05;;;;;;;10.34;82.78;99998.59;10343474;28;99186;-74
2023/12/01 20:08:29;;;;;;;9.30;4.55;;;;;;;10.39;82.62;100006.28;10346740;28;96881;-73
2023/12/01 20:13:34;;;;;;;8.95;4.80;;;;;;;10.39;82.63;100015.03;10358457;28;96885;-73
2023/12/01 20:18:37;;;;;;;10.30;5.30;;;;;;;10.36;82.84;100030.97;10344492;28;97223;-74
2023/12/01 20:23:40;;;;;;;12.57;7.28;;;;;;;10.19;83.54;100042.16;10345035;28;96925;-73
2023/12/01 20:28:45;;;;;;;11.15;6.90;;;;;;;10.30;83.61;100051.41;10344999;28;96778;-73
2023/12/01 20:33:49;;;;;;;9.05;5.03;;;;;;;10.15;83.13;100066.03;10344733;28;96993;-73
2023/12/01 20:38:52;;;;;;;7.80;4.65;;;;;;;10.01;83.76;100069.22;10343859;28;97224;-76
2023/12/01 20:43:57;;;;;;;10.38;4.22;;;;;;;10.05;83.89;100085.72;10343748;28;96816;-74
2023/12/01 20:49:00;;;;;;;7.10;4.45;;;;;;;9.97;83.94;100090.41;10343958;28;96776;-72
2023/12/01 20:54:04;;;;;;;8.25;4.72;;;;;;;10.00;83.92;100106.09;10344638;28;96853;-72
2023/12/01 20:59:10;;;;;;;7.90;4.68;;;;;;;9.96;83.79;100121.13;10345040;28;98244;-72
2023/12/01 21:04:14;;;;;;;10.48;5.80;;;;;;;9.91;83.68;100124.84;10334607;28;96941;-72
2023/12/01 21:09:17;;;;;;;12.90;5.55;;;;;;;9.99;83.17;100135.91;10335082;28;97042;-72
2023/12/01 21:14:23;;;;;;;11.30;5.63;;;;;;;10.09;83.28;100143.38;10344549;28;96716;-72
2023/12/01 21:19:26;;;;;;;11.32;4.47;;;;;;;10.04;83.92;100142.69;10321162;28;97870;-73
2023/12/01 21:24:30;;;;;;;9.18;5.25;;;;;;;10.09;83.45;100145.16;10350501;28;97067;-75
2023/12/01 21:29:35;;;;;;;11.43;5.78;;;;;;;9.95;84.32;100152.72;10360944;28;96855;-72
2023/12/01 21:34:38;;;;;;;12.10;5.93;;;;;;;9.91;84.61;100153.75;10332760;28;97137;-72
2023/12/01 21:39:42;;;;;;;10.65;6.13;;;;;;;9.98;84.06;100171.88;10361730;28;96750;-72
2023/12/01 21:44:47;;;;;;;11.20;5.88;;;;;;;10.19;85.06;100180.69;10338340;28;97707;-72
2023/12/01 21:49:51;;;;;;;9.80;5.35;;;;;;;10.22;84.62;100191.06;10301315;28;97760;-72
2023/12/01 21:54:54;;;;;;;10.68;6.03;;;;;;;10.30;84.48;100201.31;10347940;28;96791;-72
2023/12/01 21:59:59;;;;;;;9.13;5.25;;;;;;;10.37;83.74;100213.31;10356493;28;97865;-72
2023/12/01 22:05:03;;;;;;;9.52;5.93;;;;;;;10.39;84.72;100212.31;10298206;28;96715;-72
2023/12/01 22:10:08;;;;;;;11.10;6.07;;;;;;;10.37;84.16;100219.41;10360428;28;97555;-72
2023/12/01 22:15:13;;;;;;;12.75;5.53;;;;;;;10.26;83.76;100218.97;10327686;28;97937;-72
2023/12/01 22:20:17;;;;;;;11.55;5.85;;;;;;;10.24;84.47;100220.81;10361823;28;97046;-72
2023/12/01 22:25:21;;;;;;;10.77;5.33;;;;;;;10.26;83.71;100226.88;10358265;28;96882;-72
2023/12/01 22:30:26;;;;;;;10.05;5.70;;;;;;;10.27;83.95;100234.69;10331387;28;97013;-73
2023/12/01 22:35:29;;;;;;;10.00;5.85;;;;;;;10.22;84.92;100236.66;10332833;28;97868;-73
2023/12/01 22:40:33;;;;;;;9.70;5.57;;;;;;;10.11;83.97;100237.94;10334344;28;96849;-73
2023/12/01 22:45:38;;;;;;;12.07;6.18;;;;;;;10.06;84.75;100246.03;10338882;28;98681;-73
2023/12/01 22:50:41;;;;;;;11.05;6.13;;;;;;;10.03;84.21;100250.53;10352329;28;96830;-73
2023/12/01 22:55:44;;;;;;;13.95;6.03;;;;;;;10.06;84.34;100251.28;10331979;28;97160;-72
2023/12/01 23:00:49;;;;;;;10.70;5.95;;;;;;;10.06;84.84;100248.66;10332380;28;98455;-73
2023/12/01 23:05:53;;;;;;;11.90;5.22;;;;;;;9.90;84.50;100258.00;10333193;28;98650;-72
2023/12/01 23:10:56;;;;;;;9.50;5.43;;;;;;;9.86;85.08;100261.69;10331994;28;98981;-73
2023/12/01 23:16:01;;;;;;;11.10;5.80;;;;;;;9.86;85.50;100268.72;10332053;28;96798;-73
2023/12/01 23:21:05;;;;;;;11.35;6.68;;;;;;;9.97;85.05;100271.78;10332410;28;96796;-73
2023/12/01 23:26:09;;;;;;;11.73;5.95;;;;;;;10.01;84.71;100283.91;10333131;28;97153;-73
2023/12/01 23:31:14;;;;;;;9.20;4.95;;;;;;;9.93;85.36;100288.59;10331760;28;96753;-72
2023/12/01 23:36:17;;;;;;;9.32;5.18;;;;;;;9.98;85.03;100298.03;10335031;28;96855;-73